createdAt,value
2023-02-14T00:03:45.823Z,6.56
2023-02-14T00:07:47.248Z,6.32
2023-02-14T00:11:48.677Z,6.33
2023-02-14T00:15:50.068Z,6.30
2023-02-14T00:19:51.511Z,6.46
2023-02-14T00:23:54.092Z,6.54
2023-02-14T00:27:55.720Z,6.07
2023-02-14T00:31:57.254Z,6.39
2023-02-14T00:36:02.069Z,6.30
2023-02-14T00:40:04.178Z,6.19
2023-02-14T00:44:06.089Z,6.41
2023-02-14T00:48:07.503Z,6.25
2023-02-14T00:52:08.862Z,6.35
2023-02-14T00:56:10.317Z,6.13
2023-02-14T01:00:11.983Z,6.25
2023-02-14T01:04:13.353Z,6.18
2023-02-14T01:08:14.753Z,6.20
2023-02-14T01:12:16.168Z,5.74
2023-02-14T01:16:21.262Z,6.14
2023-02-14T01:20:22.743Z,6.23
2023-02-14T01:24:26.219Z,6.24
2023-02-14T01:28:27.596Z,6.36
2023-02-14T01:32:30.597Z,6.29
2023-02-14T01:36:33.395Z,6.28
2023-02-14T01:40:34.823Z,5.97
2023-02-14T01:44:36.196Z,6.08
2023-02-14T01:48:37.557Z,6.07
2023-02-14T01:52:43.738Z,5.68
2023-02-14T01:56:47.692Z,5.88
2023-02-14T02:00:59.484Z,6.10
2023-02-14T02:05:01.025Z,5.27
2023-02-14T02:09:02.370Z,5.76
2023-02-14T02:13:05.901Z,6.06
2023-02-14T02:17:23.596Z,5.98
2023-02-14T02:21:43.611Z,6.02
2023-02-14T02:25:44.967Z,6.20
2023-02-14T02:29:49.446Z,6.11
2023-02-14T02:34:09.140Z,6.11
2023-02-14T02:38:30.719Z,5.66
2023-02-14T02:42:36.703Z,5.23
2023-02-14T02:46:50.123Z,5.74
2023-02-14T02:51:14.155Z,6.02
2023-02-14T02:55:29.237Z,5.79
2023-02-14T02:59:32.063Z,5.62
2023-02-14T03:03:54.010Z,5.89
2023-02-14T03:07:55.355Z,5.95
2023-02-14T03:11:59.586Z,5.89
2023-02-14T03:16:10.254Z,6.13
2023-02-14T03:20:20.551Z,6.13
2023-02-14T03:24:31.196Z,6.06
2023-02-14T03:28:51.276Z,5.39
2023-02-14T03:33:03.965Z,5.89
2023-02-14T03:37:08.278Z,5.97
2023-02-14T03:41:13.145Z,6.06
2023-02-14T03:45:18.495Z,6.08
2023-02-14T03:49:22.286Z,5.40
2023-02-14T03:53:25.109Z,5.57
2023-02-14T03:57:38.623Z,5.90
2023-02-14T04:01:45.103Z,5.96
2023-02-14T04:05:52.281Z,5.86
2023-02-14T04:09:53.841Z,5.67
2023-02-14T04:13:55.229Z,5.77
2023-02-14T04:18:15.194Z,5.83
2023-02-14T04:22:16.718Z,5.13
2023-02-14T04:26:18.110Z,4.82
2023-02-14T04:30:20.880Z,5.37
2023-02-14T04:34:22.319Z,5.64
2023-02-14T04:38:23.730Z,5.63
2023-02-14T04:42:25.272Z,5.40
2023-02-14T04:46:26.687Z,4.85
2023-02-14T04:50:28.024Z,5.27
2023-02-14T04:54:29.464Z,5.06
2023-02-14T04:58:30.800Z,4.89
2023-02-14T05:02:32.123Z,5.25
2023-02-14T05:06:33.728Z,5.48
2023-02-14T05:10:35.122Z,5.31
2023-02-14T05:14:36.487Z,5.13
2023-02-14T05:18:37.911Z,5.00
2023-02-14T05:22:39.291Z,5.30
2023-02-14T05:26:41.121Z,5.29
2023-02-14T05:30:42.560Z,5.09
2023-02-14T05:34:43.962Z,5.45
2023-02-14T05:38:45.308Z,5.37
2023-02-14T05:42:46.676Z,4.89
2023-02-14T05:46:48.105Z,5.33
2023-02-14T05:50:49.570Z,5.50
2023-02-14T05:54:50.997Z,5.54
2023-02-14T05:58:52.342Z,4.98
2023-02-14T06:02:53.820Z,5.14
2023-02-14T06:06:55.160Z,5.34
2023-02-14T06:10:56.531Z,5.50
2023-02-14T06:14:57.855Z,5.37
2023-02-14T06:18:59.224Z,5.07
2023-02-14T06:23:01.343Z,5.10
2023-02-14T06:27:02.777Z,5.03
2023-02-14T06:31:04.694Z,5.28
2023-02-14T06:35:06.792Z,5.29
2023-02-14T06:39:08.190Z,5.35
2023-02-14T06:43:09.553Z,5.56
2023-02-14T06:47:10.935Z,5.56
2023-02-14T06:51:12.348Z,5.24
2023-02-14T06:55:13.876Z,5.05
2023-02-14T06:59:15.345Z,5.29
2023-02-14T07:03:16.997Z,5.33
2023-02-14T07:07:18.594Z,5.58
2023-02-14T07:11:20.057Z,5.40
2023-02-14T07:15:21.698Z,5.45
2023-02-14T07:19:23.068Z,5.44
2023-02-14T07:23:24.423Z,5.71
2023-02-14T07:27:25.776Z,5.62
2023-02-14T07:31:27.231Z,5.34
2023-02-14T07:35:28.745Z,5.23
2023-02-14T07:39:30.115Z,5.48
2023-02-14T07:43:33.262Z,5.79
2023-02-14T07:47:34.602Z,5.86
2023-02-14T07:51:35.987Z,5.65
2023-02-14T07:55:37.633Z,5.72
2023-02-14T07:59:39.063Z,5.86
2023-02-14T08:03:40.530Z,6.05
2023-02-14T08:07:43.083Z,6.22
2023-02-14T08:12:03.443Z,6.22
2023-02-14T08:16:04.959Z,6.38
2023-02-14T08:20:07.661Z,6.52
2023-02-14T08:24:09.064Z,6.44
2023-02-14T08:28:10.575Z,6.39
2023-02-14T08:32:12.099Z,6.52
2023-02-14T08:36:13.588Z,6.52
2023-02-14T08:40:15.319Z,6.59
2023-02-14T08:44:16.818Z,6.62
2023-02-14T08:48:18.243Z,6.60
2023-02-14T08:52:19.580Z,6.48
2023-02-14T08:56:22.641Z,6.52
2023-02-14T09:00:24.045Z,6.57
2023-02-14T09:04:25.512Z,6.56
2023-02-14T09:08:26.992Z,6.69
2023-02-14T09:12:28.655Z,6.58
2023-02-14T09:16:30.386Z,6.81
2023-02-14T09:20:31.826Z,6.83
2023-02-14T09:24:33.954Z,6.91
2023-02-14T09:28:35.612Z,6.90
2023-02-14T09:32:37.023Z,6.75
2023-02-14T09:36:38.452Z,6.78
2023-02-14T09:40:39.860Z,6.85
2023-02-14T09:44:51.632Z,7.07
2023-02-14T09:48:54.393Z,7.05
2023-02-14T09:52:57.826Z,6.94
2023-02-14T09:57:03.134Z,7.02
2023-02-14T10:01:04.663Z,6.91
2023-02-14T10:05:14.901Z,7.10
2023-02-14T10:09:22.284Z,6.72
2023-02-14T10:13:30.112Z,6.98
2023-02-14T10:17:38.220Z,7.06
2023-02-14T10:21:39.554Z,7.01
2023-02-14T10:25:44.968Z,7.19
2023-02-14T10:29:46.342Z,7.04
2023-02-14T10:33:59.370Z,6.89
2023-02-14T10:38:00.691Z,6.89
2023-02-14T10:42:14.213Z,6.91
2023-02-14T10:46:18.788Z,6.85
2023-02-14T10:50:20.183Z,7.19
2023-02-14T10:54:21.605Z,7.17
2023-02-14T10:58:25.460Z,7.10
2023-02-14T11:02:31.034Z,7.21
2023-02-14T11:06:32.942Z,7.31
2023-02-14T11:10:35.686Z,7.30
2023-02-14T11:18:24.851Z,7.22
2023-02-14T11:22:31.078Z,7.04
2023-02-14T11:26:35.012Z,6.70
2023-02-14T11:30:41.237Z,6.73
2023-02-14T11:34:53.833Z,6.87
2023-02-14T11:39:02.361Z,6.90
2023-02-14T11:43:14.606Z,6.99
2023-02-14T11:47:24.629Z,6.94
2023-02-14T11:51:43.058Z,6.85
2023-02-14T11:55:44.605Z,6.83
2023-02-14T11:59:51.027Z,7.02
2023-02-14T12:03:55.499Z,6.83
2023-02-14T12:07:59.936Z,6.84
2023-02-14T12:12:16.112Z,6.72
2023-02-14T12:16:28.247Z,6.66
2023-02-14T12:20:57.326Z,6.55
2023-02-14T12:25:21.405Z,6.74
2023-02-14T12:29:27.900Z,6.61
2023-02-14T12:33:29.652Z,6.75
2023-02-14T12:37:48.750Z,6.80
2023-02-14T12:41:52.094Z,6.95
2023-02-14T12:46:08.755Z,6.84
2023-02-14T12:50:48.036Z,6.53
2023-02-14T12:54:55.633Z,5.96
2023-02-14T12:59:14.281Z,6.19
2023-02-14T13:03:45.355Z,6.33
2023-02-14T13:08:23.827Z,6.42
2023-02-14T13:12:31.148Z,6.46
2023-02-14T13:16:49.496Z,6.73
2023-02-14T13:25:03.749Z,6.27
2023-02-14T13:29:10.912Z,6.44
2023-02-14T13:33:25.214Z,6.17
2023-02-14T13:37:28.384Z,6.38
2023-02-14T13:41:30.683Z,6.73
2023-02-14T13:45:32.056Z,6.70
2023-02-14T13:49:38.524Z,6.41
2023-02-14T13:53:48.522Z,6.20
2023-02-14T13:58:06.304Z,6.54
2023-02-14T14:02:31.775Z,6.53
2023-02-14T14:07:01.167Z,6.22
2023-02-14T14:11:13.189Z,6.35
2023-02-14T14:15:16.911Z,6.46
2023-02-14T14:19:21.857Z,6.48
2023-02-14T14:23:30.961Z,6.84
2023-02-14T14:27:46.142Z,6.76
2023-02-14T14:31:55.195Z,6.47
2023-02-14T14:35:58.597Z,6.61
2023-02-14T14:40:03.747Z,6.70
2023-02-14T14:44:06.606Z,6.27
2023-02-14T14:48:12.567Z,6.28
2023-02-14T14:52:46.520Z,6.39
2023-02-14T14:57:01.475Z,6.43
2023-02-14T15:01:04.345Z,6.46
2023-02-14T15:05:25.831Z,6.54
2023-02-14T15:09:36.108Z,6.53
2023-02-14T15:13:53.803Z,6.02
2023-02-14T15:17:55.935Z,5.95
2023-02-14T15:21:57.589Z,6.08
2023-02-14T15:25:59.228Z,5.86
2023-02-14T15:30:04.855Z,5.89
2023-02-14T15:34:06.836Z,5.63
2023-02-14T15:38:11.993Z,5.79
2023-02-14T15:42:25.654Z,5.74
2023-02-14T15:46:39.203Z,5.79
2023-02-14T15:50:50.154Z,5.79
2023-02-14T15:54:51.678Z,5.76
2023-02-14T15:59:02.781Z,5.99
2023-02-14T16:03:07.642Z,5.78
2023-02-14T16:07:35.410Z,5.77
2023-02-14T16:11:38.591Z,5.76
2023-02-14T16:15:55.283Z,5.86
2023-02-14T16:19:56.717Z,5.49
2023-02-14T16:24:07.243Z,5.60
2023-02-14T16:28:08.794Z,5.50
2023-02-14T16:32:16.839Z,5.54
2023-02-14T16:36:24.430Z,5.45
2023-02-14T16:40:28.681Z,5.27
2023-02-14T16:44:30.971Z,5.43
2023-02-14T16:48:32.410Z,5.41
2023-02-14T16:52:34.639Z,5.68
2023-02-14T16:56:38.706Z,5.76
2023-02-14T17:00:40.159Z,5.62
2023-02-14T17:04:41.879Z,5.48
2023-02-14T17:08:43.770Z,5.69
2023-02-14T17:12:48.294Z,5.80
2023-02-14T17:16:50.483Z,5.81
2023-02-14T17:20:52.039Z,5.65
2023-02-14T17:24:54.647Z,5.40
2023-02-14T17:28:57.610Z,5.42
2023-02-14T17:32:59.126Z,5.48
2023-02-14T17:37:00.612Z,5.43
2023-02-14T17:41:16.859Z,5.14
2023-02-14T17:45:18.352Z,5.58
2023-02-14T17:49:19.845Z,5.21
2023-02-14T17:53:21.376Z,5.13
2023-02-14T17:57:22.854Z,5.15
2023-02-14T18:01:27.151Z,5.01
2023-02-14T18:05:28.703Z,5.52
2023-02-14T18:09:30.714Z,5.40
2023-02-14T18:13:32.309Z,5.45
2023-02-14T18:17:33.847Z,5.50
2023-02-14T18:21:39.859Z,5.36
2023-02-14T18:25:49.301Z,5.42
2023-02-14T18:29:50.873Z,5.45
2023-02-14T18:33:52.652Z,5.21
2023-02-14T18:37:54.084Z,5.36
2023-02-14T18:41:59.793Z,5.39
2023-02-14T18:46:10.164Z,5.39
2023-02-14T18:50:11.807Z,5.11
2023-02-14T18:54:13.226Z,5.30
2023-02-14T18:58:14.652Z,5.32
2023-02-14T19:02:16.611Z,5.10
2023-02-14T19:06:19.136Z,5.40
2023-02-14T19:10:20.610Z,5.42
2023-02-14T19:14:22.050Z,5.24
2023-02-14T19:18:25.634Z,5.13
2023-02-14T19:22:27.178Z,5.10
2023-02-14T19:26:37.059Z,5.21
2023-02-14T19:30:38.395Z,5.10
2023-02-14T19:34:39.892Z,5.02
2023-02-14T19:38:43.546Z,5.09
2023-02-14T19:42:45.258Z,5.10
2023-02-14T19:46:47.716Z,5.12
2023-02-14T19:50:50.129Z,5.22
2023-02-14T19:54:51.547Z,5.19
2023-02-14T19:58:53.583Z,5.33
2023-02-14T20:02:55.068Z,5.21
2023-02-14T20:06:57.024Z,5.24
2023-02-14T20:10:58.832Z,5.18
2023-02-14T20:15:00.484Z,5.22
2023-02-14T20:19:08.732Z,5.11
2023-02-14T20:23:10.460Z,5.05
2023-02-14T20:27:12.008Z,4.98
2023-02-14T20:31:16.207Z,5.05
2023-02-14T20:35:17.665Z,4.77
2023-02-14T20:39:21.427Z,4.94
2023-02-14T20:43:25.871Z,4.96
2023-02-14T20:47:28.626Z,4.88
2023-02-14T20:51:30.167Z,5.15
2023-02-14T20:55:31.709Z,5.08
2023-02-14T20:59:33.240Z,4.78
2023-02-14T21:03:36.265Z,4.94
2023-02-14T21:07:38.194Z,4.77
2023-02-14T21:11:39.651Z,4.62
2023-02-14T21:15:41.192Z,4.63
2023-02-14T21:19:42.664Z,4.57
2023-02-14T21:23:44.389Z,4.62
2023-02-14T21:27:46.735Z,4.69
2023-02-14T21:31:48.332Z,4.59
2023-02-14T21:35:49.824Z,4.53
2023-02-14T21:39:51.268Z,4.66
2023-02-14T21:43:54.104Z,4.62
2023-02-14T21:48:13.820Z,4.34
2023-02-14T21:52:15.381Z,4.35
2023-02-14T21:56:19.822Z,4.37
2023-02-14T22:00:22.609Z,4.32
2023-02-14T22:04:24.537Z,4.40
2023-02-14T22:08:25.943Z,4.49
2023-02-14T22:12:28.537Z,4.16
2023-02-14T22:16:29.991Z,4.14
2023-02-14T22:20:31.837Z,3.91
2023-02-14T22:24:33.319Z,3.81
2023-02-14T22:28:34.781Z,3.91
2023-02-14T22:32:36.246Z,3.86
2023-02-14T22:36:37.760Z,3.78
2023-02-14T22:40:39.171Z,3.62
2023-02-14T22:44:40.604Z,3.62
2023-02-14T22:48:42.115Z,3.65
2023-02-14T22:52:43.564Z,3.80
2023-02-14T22:56:47.621Z,3.76
2023-02-14T23:00:49.076Z,3.74
2023-02-14T23:04:50.982Z,3.83
2023-02-14T23:08:53.636Z,3.67
2023-02-14T23:13:13.565Z,3.48
2023-02-14T23:17:16.083Z,3.44
2023-02-14T23:21:35.929Z,3.52
2023-02-14T23:25:37.332Z,3.48
2023-02-14T23:29:38.801Z,3.38
2023-02-14T23:33:40.196Z,3.33
2023-02-14T23:37:41.789Z,3.24
2023-02-14T23:41:51.994Z,3.21
2023-02-14T23:45:53.510Z,3.04
2023-02-14T23:49:54.950Z,2.99
2023-02-14T23:53:56.423Z,2.59
2023-02-14T23:57:57.848Z,2.73
